sensor_id;sensor_type;location;lat;lon;timestamp;P1;durP1;ratioP1;P2;durP2;ratioP2
15665;SDS011;20725;51.196;3.510;2023-03-03T00:10:54;37.13;;;22.90;;
15665;SDS011;20725;51.196;3.510;2023-03-03T00:13:31;39.20;;;25.07;;
15665;SDS011;20725;51.196;3.510;2023-03-03T00:16:26;41.40;;;24.70;;
15665;SDS011;20725;51.196;3.510;2023-03-03T00:19:53;38.83;;;23.40;;
15665;SDS011;20725;51.196;3.510;2023-03-03T00:26:35;38.57;;;24.17;;
15665;SDS011;20725;51.196;3.510;2023-03-03T00:34:00;39.53;;;25.13;;
15665;SDS011;20725;51.196;3.510;2023-03-03T00:37:19;42.30;;;25.57;;
15665;SDS011;20725;51.196;3.510;2023-03-03T01:08:29;42.77;;;25.30;;
15665;SDS011;20725;51.196;3.510;2023-03-03T01:10:57;40.27;;;25.40;;
15665;SDS011;20725;51.196;3.510;2023-03-03T01:13:29;38.87;;;24.60;;
15665;SDS011;20725;51.196;3.510;2023-03-03T01:15:58;41.47;;;24.33;;
15665;SDS011;20725;51.196;3.510;2023-03-03T01:18:26;43.47;;;26.03;;
15665;SDS011;20725;51.196;3.510;2023-03-03T01:20:53;44.27;;;25.93;;
15665;SDS011;20725;51.196;3.510;2023-03-03T01:23:20;38.73;;;24.17;;
15665;SDS011;20725;51.196;3.510;2023-03-03T01:25:48;39.00;;;25.30;;
15665;SDS011;20725;51.196;3.510;2023-03-03T01:28:15;39.67;;;24.67;;
15665;SDS011;20725;51.196;3.510;2023-03-03T01:30:42;41.70;;;25.40;;
15665;SDS011;20725;51.196;3.510;2023-03-03T01:33:09;39.80;;;24.53;;
15665;SDS011;20725;51.196;3.510;2023-03-03T01:35:36;38.87;;;24.67;;
15665;SDS011;20725;51.196;3.510;2023-03-03T01:38:05;39.50;;;24.43;;
15665;SDS011;20725;51.196;3.510;2023-03-03T01:40:32;37.23;;;22.03;;
15665;SDS011;20725;51.196;3.510;2023-03-03T01:43:00;36.77;;;23.87;;
15665;SDS011;20725;51.196;3.510;2023-03-03T01:45:27;38.97;;;23.70;;
15665;SDS011;20725;51.196;3.510;2023-03-03T01:47:58;38.60;;;22.10;;
15665;SDS011;20725;51.196;3.510;2023-03-03T01:50:31;37.50;;;22.43;;
15665;SDS011;20725;51.196;3.510;2023-03-03T01:53:09;35.43;;;21.43;;
15665;SDS011;20725;51.196;3.510;2023-03-03T01:55:40;34.83;;;21.93;;
15665;SDS011;20725;51.196;3.510;2023-03-03T01:58:11;35.23;;;22.27;;
15665;SDS011;20725;51.196;3.510;2023-03-03T02:00:43;36.03;;;22.00;;
15665;SDS011;20725;51.196;3.510;2023-03-03T02:03:15;34.70;;;21.97;;
15665;SDS011;20725;51.196;3.510;2023-03-03T02:05:43;34.47;;;21.23;;
15665;SDS011;20725;51.196;3.510;2023-03-03T02:08:10;33.67;;;20.73;;
15665;SDS011;20725;51.196;3.510;2023-03-03T02:10:41;31.47;;;20.50;;
15665;SDS011;20725;51.196;3.510;2023-03-03T02:13:10;29.83;;;20.67;;
15665;SDS011;20725;51.196;3.510;2023-03-03T02:15:38;29.33;;;20.27;;
15665;SDS011;20725;51.196;3.510;2023-03-03T02:18:06;30.47;;;20.57;;
15665;SDS011;20725;51.196;3.510;2023-03-03T02:20:40;31.43;;;19.17;;
15665;SDS011;20725;51.196;3.510;2023-03-03T02:23:12;26.77;;;18.77;;
15665;SDS011;20725;51.196;3.510;2023-03-03T02:25:47;30.17;;;19.47;;
15665;SDS011;20725;51.196;3.510;2023-03-03T02:28:21;27.97;;;18.63;;
15665;SDS011;20725;51.196;3.510;2023-03-03T02:30:51;29.43;;;18.77;;
15665;SDS011;20725;51.196;3.510;2023-03-03T02:33:20;27.57;;;19.60;;
15665;SDS011;20725;51.196;3.510;2023-03-03T02:35:47;29.33;;;18.33;;
15665;SDS011;20725;51.196;3.510;2023-03-03T02:38:16;26.10;;;18.03;;
15665;SDS011;20725;51.196;3.510;2023-03-03T02:40:51;28.60;;;18.73;;
15665;SDS011;20725;51.196;3.510;2023-03-03T02:43:27;23.63;;;16.80;;
15665;SDS011;20725;51.196;3.510;2023-03-03T02:46:01;23.87;;;16.53;;
15665;SDS011;20725;51.196;3.510;2023-03-03T02:48:28;30.17;;;18.40;;
15665;SDS011;20725;51.196;3.510;2023-03-03T02:50:55;23.73;;;17.17;;
15665;SDS011;20725;51.196;3.510;2023-03-03T02:53:22;26.63;;;17.40;;
15665;SDS011;20725;51.196;3.510;2023-03-03T02:55:49;24.17;;;17.77;;
15665;SDS011;20725;51.196;3.510;2023-03-03T02:58:16;23.37;;;17.33;;
15665;SDS011;20725;51.196;3.510;2023-03-03T03:00:45;24.30;;;16.70;;
15665;SDS011;20725;51.196;3.510;2023-03-03T03:03:12;21.40;;;16.83;;
15665;SDS011;20725;51.196;3.510;2023-03-03T03:05:39;24.40;;;17.40;;
15665;SDS011;20725;51.196;3.510;2023-03-03T03:08:06;23.20;;;16.87;;
15665;SDS011;20725;51.196;3.510;2023-03-03T03:10:33;24.40;;;17.53;;
15665;SDS011;20725;51.196;3.510;2023-03-03T03:13:00;23.50;;;17.33;;
15665;SDS011;20725;51.196;3.510;2023-03-03T03:15:27;28.27;;;19.17;;
15665;SDS011;20725;51.196;3.510;2023-03-03T03:17:55;27.10;;;18.00;;
15665;SDS011;20725;51.196;3.510;2023-03-03T03:20:22;25.13;;;18.10;;
15665;SDS011;20725;51.196;3.510;2023-03-03T03:22:49;27.73;;;18.60;;
15665;SDS011;20725;51.196;3.510;2023-03-03T03:25:16;24.57;;;18.27;;
15665;SDS011;20725;51.196;3.510;2023-03-03T03:27:43;25.50;;;17.20;;
15665;SDS011;20725;51.196;3.510;2023-03-03T03:30:10;28.47;;;18.90;;
15665;SDS011;20725;51.196;3.510;2023-03-03T03:32:37;26.00;;;19.00;;
15665;SDS011;20725;51.196;3.510;2023-03-03T03:35:06;26.87;;;17.40;;
15665;SDS011;20725;51.196;3.510;2023-03-03T03:37:33;23.57;;;17.33;;
15665;SDS011;20725;51.196;3.510;2023-03-03T03:40:00;21.43;;;17.37;;
15665;SDS011;20725;51.196;3.510;2023-03-03T03:42:27;23.73;;;16.77;;
15665;SDS011;20725;51.196;3.510;2023-03-03T03:44:54;23.17;;;17.40;;
15665;SDS011;20725;51.196;3.510;2023-03-03T03:47:21;25.33;;;17.90;;
15665;SDS011;20725;51.196;3.510;2023-03-03T03:49:48;26.97;;;17.80;;
15665;SDS011;20725;51.196;3.510;2023-03-03T03:52:16;26.40;;;18.43;;
15665;SDS011;20725;51.196;3.510;2023-03-03T03:54:43;23.73;;;18.00;;
15665;SDS011;20725;51.196;3.510;2023-03-03T03:57:10;24.27;;;17.73;;
15665;SDS011;20725;51.196;3.510;2023-03-03T03:59:37;26.70;;;18.47;;
15665;SDS011;20725;51.196;3.510;2023-03-03T04:02:04;28.93;;;18.50;;
15665;SDS011;20725;51.196;3.510;2023-03-03T04:04:31;29.83;;;18.13;;
15665;SDS011;20725;51.196;3.510;2023-03-03T04:06:58;23.77;;;18.23;;
15665;SDS011;20725;51.196;3.510;2023-03-03T04:09:26;28.53;;;19.03;;
15665;SDS011;20725;51.196;3.510;2023-03-03T04:11:53;23.87;;;17.47;;
15665;SDS011;20725;51.196;3.510;2023-03-03T04:14:20;25.87;;;18.43;;
15665;SDS011;20725;51.196;3.510;2023-03-03T04:16:47;29.83;;;18.87;;
15665;SDS011;20725;51.196;3.510;2023-03-03T04:19:14;30.13;;;18.27;;
15665;SDS011;20725;51.196;3.510;2023-03-03T04:21:41;29.93;;;18.33;;
15665;SDS011;20725;51.196;3.510;2023-03-03T04:24:08;27.93;;;18.60;;
15665;SDS011;20725;51.196;3.510;2023-03-03T04:26:36;28.43;;;18.20;;
15665;SDS011;20725;51.196;3.510;2023-03-03T04:29:03;29.63;;;18.90;;
15665;SDS011;20725;51.196;3.510;2023-03-03T04:31:30;25.77;;;18.43;;
15665;SDS011;20725;51.196;3.510;2023-03-03T04:33:57;30.33;;;18.63;;
15665;SDS011;20725;51.196;3.510;2023-03-03T04:36:24;26.83;;;18.17;;
15665;SDS011;20725;51.196;3.510;2023-03-03T04:38:51;25.20;;;17.77;;
15665;SDS011;20725;51.196;3.510;2023-03-03T04:41:18;31.43;;;17.80;;
15665;SDS011;20725;51.196;3.510;2023-03-03T04:43:46;24.57;;;18.97;;
15665;SDS011;20725;51.196;3.510;2023-03-03T04:46:13;26.83;;;18.10;;
15665;SDS011;20725;51.196;3.510;2023-03-03T04:48:40;26.97;;;17.73;;
15665;SDS011;20725;51.196;3.510;2023-03-03T04:51:07;24.10;;;17.27;;
15665;SDS011;20725;51.196;3.510;2023-03-03T04:53:34;28.47;;;17.37;;
15665;SDS011;20725;51.196;3.510;2023-03-03T04:56:02;26.50;;;17.27;;
15665;SDS011;20725;51.196;3.510;2023-03-03T04:58:30;22.67;;;17.00;;
15665;SDS011;20725;51.196;3.510;2023-03-03T05:00:58;23.00;;;17.20;;
15665;SDS011;20725;51.196;3.510;2023-03-03T05:03:25;20.77;;;15.43;;
15665;SDS011;20725;51.196;3.510;2023-03-03T05:05:52;22.87;;;15.97;;
15665;SDS011;20725;51.196;3.510;2023-03-03T05:08:19;24.50;;;15.83;;
15665;SDS011;20725;51.196;3.510;2023-03-03T05:10:49;27.33;;;16.50;;
15665;SDS011;20725;51.196;3.510;2023-03-03T05:13:17;25.43;;;16.00;;
15665;SDS011;20725;51.196;3.510;2023-03-03T05:15:47;22.20;;;15.70;;
15665;SDS011;20725;51.196;3.510;2023-03-03T05:18:17;24.00;;;16.07;;
15665;SDS011;20725;51.196;3.510;2023-03-03T05:20:44;26.37;;;16.07;;
15665;SDS011;20725;51.196;3.510;2023-03-03T05:23:11;22.73;;;15.87;;
15665;SDS011;20725;51.196;3.510;2023-03-03T05:25:39;25.13;;;15.07;;
15665;SDS011;20725;51.196;3.510;2023-03-03T05:28:06;21.73;;;14.47;;
15665;SDS011;20725;51.196;3.510;2023-03-03T05:30:33;24.27;;;15.87;;
15665;SDS011;20725;51.196;3.510;2023-03-03T05:33:00;22.77;;;15.17;;
15665;SDS011;20725;51.196;3.510;2023-03-03T05:35:28;19.13;;;15.00;;
15665;SDS011;20725;51.196;3.510;2023-03-03T05:37:55;17.43;;;13.93;;
15665;SDS011;20725;51.196;3.510;2023-03-03T05:40:23;18.63;;;14.17;;
15665;SDS011;20725;51.196;3.510;2023-03-03T05:42:50;18.57;;;12.93;;
15665;SDS011;20725;51.196;3.510;2023-03-03T05:45:17;16.70;;;13.50;;
15665;SDS011;20725;51.196;3.510;2023-03-03T05:47:45;17.63;;;12.90;;
15665;SDS011;20725;51.196;3.510;2023-03-03T05:50:13;16.90;;;13.20;;
15665;SDS011;20725;51.196;3.510;2023-03-03T05:52:42;19.40;;;12.07;;
15665;SDS011;20725;51.196;3.510;2023-03-03T05:55:09;13.50;;;12.13;;
15665;SDS011;20725;51.196;3.510;2023-03-03T05:57:36;14.57;;;12.93;;
15665;SDS011;20725;51.196;3.510;2023-03-03T06:00:04;15.60;;;11.70;;
15665;SDS011;20725;51.196;3.510;2023-03-03T06:02:32;12.57;;;11.23;;
15665;SDS011;20725;51.196;3.510;2023-03-03T06:04:59;14.87;;;10.83;;
15665;SDS011;20725;51.196;3.510;2023-03-03T06:07:26;14.27;;;11.10;;
15665;SDS011;20725;51.196;3.510;2023-03-03T06:09:54;12.77;;;10.87;;
15665;SDS011;20725;51.196;3.510;2023-03-03T06:12:21;14.07;;;12.60;;
15665;SDS011;20725;51.196;3.510;2023-03-03T06:14:48;15.97;;;11.90;;
15665;SDS011;20725;51.196;3.510;2023-03-03T06:17:15;12.03;;;10.70;;
15665;SDS011;20725;51.196;3.510;2023-03-03T06:19:42;16.03;;;11.73;;
15665;SDS011;20725;51.196;3.510;2023-03-03T06:22:09;13.90;;;11.37;;
15665;SDS011;20725;51.196;3.510;2023-03-03T06:24:36;15.17;;;11.50;;
15665;SDS011;20725;51.196;3.510;2023-03-03T06:27:05;15.47;;;11.43;;
15665;SDS011;20725;51.196;3.510;2023-03-03T06:29:31;15.50;;;11.10;;
15665;SDS011;20725;51.196;3.510;2023-03-03T06:31:58;21.17;;;12.60;;
15665;SDS011;20725;51.196;3.510;2023-03-03T06:34:25;14.40;;;11.57;;
15665;SDS011;20725;51.196;3.510;2023-03-03T06:36:52;13.60;;;11.40;;
15665;SDS011;20725;51.196;3.510;2023-03-03T06:39:21;16.67;;;13.37;;
15665;SDS011;20725;51.196;3.510;2023-03-03T06:41:47;15.57;;;11.57;;
15665;SDS011;20725;51.196;3.510;2023-03-03T06:44:16;18.50;;;13.17;;
15665;SDS011;20725;51.196;3.510;2023-03-03T06:46:43;15.60;;;12.57;;
15665;SDS011;20725;51.196;3.510;2023-03-03T06:49:09;16.77;;;13.17;;
15665;SDS011;20725;51.196;3.510;2023-03-03T06:51:37;18.43;;;13.10;;
15665;SDS011;20725;51.196;3.510;2023-03-03T06:54:08;17.03;;;13.63;;
15665;SDS011;20725;51.196;3.510;2023-03-03T06:56:38;20.73;;;14.40;;
15665;SDS011;20725;51.196;3.510;2023-03-03T06:59:09;17.80;;;14.30;;
15665;SDS011;20725;51.196;3.510;2023-03-03T07:01:40;19.47;;;13.60;;
15665;SDS011;20725;51.196;3.510;2023-03-03T07:04:13;20.23;;;15.17;;
15665;SDS011;20725;51.196;3.510;2023-03-03T07:06:46;24.93;;;15.53;;
15665;SDS011;20725;51.196;3.510;2023-03-03T07:09:14;21.70;;;15.63;;
15665;SDS011;20725;51.196;3.510;2023-03-03T07:11:46;23.90;;;16.83;;
15665;SDS011;20725;51.196;3.510;2023-03-03T07:14:14;20.13;;;15.63;;
15665;SDS011;20725;51.196;3.510;2023-03-03T07:16:44;23.73;;;16.17;;
15665;SDS011;20725;51.196;3.510;2023-03-03T07:19:15;22.60;;;16.63;;
15665;SDS011;20725;51.196;3.510;2023-03-03T07:21:45;22.90;;;16.70;;
15665;SDS011;20725;51.196;3.510;2023-03-03T07:24:21;20.60;;;16.23;;
15665;SDS011;20725;51.196;3.510;2023-03-03T07:26:53;18.83;;;16.00;;
15665;SDS011;20725;51.196;3.510;2023-03-03T07:29:25;27.50;;;18.97;;
15665;SDS011;20725;51.196;3.510;2023-03-03T07:31:56;20.60;;;17.00;;
15665;SDS011;20725;51.196;3.510;2023-03-03T07:34:26;25.77;;;16.97;;
15665;SDS011;20725;51.196;3.510;2023-03-03T07:37:01;22.73;;;17.67;;
15665;SDS011;20725;51.196;3.510;2023-03-03T07:39:35;23.97;;;16.67;;
15665;SDS011;20725;51.196;3.510;2023-03-03T07:42:12;21.33;;;16.47;;
15665;SDS011;20725;51.196;3.510;2023-03-03T07:44:45;20.63;;;15.67;;
15665;SDS011;20725;51.196;3.510;2023-03-03T07:47:21;17.77;;;14.70;;
15665;SDS011;20725;51.196;3.510;2023-03-03T07:49:50;21.33;;;14.93;;
15665;SDS011;20725;51.196;3.510;2023-03-03T07:52:22;19.70;;;13.70;;
15665;SDS011;20725;51.196;3.510;2023-03-03T07:54:52;16.57;;;13.03;;
15665;SDS011;20725;51.196;3.510;2023-03-03T07:57:21;15.20;;;13.70;;
15665;SDS011;20725;51.196;3.510;2023-03-03T07:59:51;16.20;;;13.73;;
15665;SDS011;20725;51.196;3.510;2023-03-03T08:02:32;17.10;;;13.07;;
15665;SDS011;20725;51.196;3.510;2023-03-03T08:05:20;15.20;;;12.90;;
15665;SDS011;20725;51.196;3.510;2023-03-03T08:07:55;15.63;;;12.50;;
15665;SDS011;20725;51.196;3.510;2023-03-03T08:10:45;14.07;;;12.30;;
15665;SDS011;20725;51.196;3.510;2023-03-03T08:13:17;16.80;;;12.47;;
15665;SDS011;20725;51.196;3.510;2023-03-03T08:15:45;14.70;;;12.03;;
15665;SDS011;20725;51.196;3.510;2023-03-03T08:18:20;16.70;;;12.97;;
15665;SDS011;20725;51.196;3.510;2023-03-03T08:20:52;15.27;;;12.03;;
15665;SDS011;20725;51.196;3.510;2023-03-03T08:23:21;14.57;;;12.50;;
15665;SDS011;20725;51.196;3.510;2023-03-03T08:25:49;15.20;;;11.80;;
15665;SDS011;20725;51.196;3.510;2023-03-03T08:28:17;15.50;;;12.23;;
15665;SDS011;20725;51.196;3.510;2023-03-03T08:30:45;14.10;;;11.90;;
15665;SDS011;20725;51.196;3.510;2023-03-03T08:33:12;16.40;;;11.87;;
15665;SDS011;20725;51.196;3.510;2023-03-03T08:35:41;12.50;;;11.13;;
15665;SDS011;20725;51.196;3.510;2023-03-03T08:38:09;13.43;;;11.23;;
15665;SDS011;20725;51.196;3.510;2023-03-03T08:40:38;13.80;;;12.20;;
15665;SDS011;20725;51.196;3.510;2023-03-03T08:43:06;15.97;;;11.40;;
15665;SDS011;20725;51.196;3.510;2023-03-03T08:45:34;15.20;;;12.13;;
15665;SDS011;20725;51.196;3.510;2023-03-03T08:48:01;17.07;;;11.13;;
15665;SDS011;20725;51.196;3.510;2023-03-03T08:50:28;16.73;;;11.77;;
15665;SDS011;20725;51.196;3.510;2023-03-03T08:52:57;17.23;;;12.23;;
15665;SDS011;20725;51.196;3.510;2023-03-03T08:55:24;16.90;;;12.50;;
15665;SDS011;20725;51.196;3.510;2023-03-03T08:57:50;18.90;;;13.27;;
15665;SDS011;20725;51.196;3.510;2023-03-03T09:00:18;19.53;;;13.70;;
15665;SDS011;20725;51.196;3.510;2023-03-03T09:02:45;18.37;;;12.83;;
15665;SDS011;20725;51.196;3.510;2023-03-03T09:05:13;19.20;;;12.87;;
15665;SDS011;20725;51.196;3.510;2023-03-03T09:07:41;19.27;;;12.93;;
15665;SDS011;20725;51.196;3.510;2023-03-03T09:10:12;17.83;;;14.30;;
15665;SDS011;20725;51.196;3.510;2023-03-03T09:12:41;18.70;;;13.33;;
15665;SDS011;20725;51.196;3.510;2023-03-03T09:15:14;22.27;;;15.03;;
15665;SDS011;20725;51.196;3.510;2023-03-03T09:17:45;19.77;;;14.40;;
15665;SDS011;20725;51.196;3.510;2023-03-03T09:23:20;17.47;;;13.03;;
15665;SDS011;20725;51.196;3.510;2023-03-03T09:25:55;21.47;;;12.57;;
15665;SDS011;20725;51.196;3.510;2023-03-03T09:28:23;14.83;;;12.07;;
15665;SDS011;20725;51.196;3.510;2023-03-03T09:30:52;17.87;;;13.00;;
15665;SDS011;20725;51.196;3.510;2023-03-03T09:33:24;14.37;;;11.97;;
15665;SDS011;20725;51.196;3.510;2023-03-03T09:35:53;14.07;;;12.57;;
15665;SDS011;20725;51.196;3.510;2023-03-03T09:38:28;19.10;;;14.03;;
15665;SDS011;20725;51.196;3.510;2023-03-03T09:44:13;15.60;;;12.60;;
15665;SDS011;20725;51.196;3.510;2023-03-03T09:46:57;15.37;;;12.37;;
15665;SDS011;20725;51.196;3.510;2023-03-03T09:49:40;14.07;;;11.40;;
15665;SDS011;20725;51.196;3.510;2023-03-03T09:52:21;18.30;;;11.70;;
15665;SDS011;20725;51.196;3.510;2023-03-03T09:55:00;18.30;;;12.30;;
15665;SDS011;20725;51.196;3.510;2023-03-03T09:57:46;16.00;;;11.77;;
15665;SDS011;20725;51.196;3.510;2023-03-03T10:00:33;14.97;;;10.83;;
15665;SDS011;20725;51.196;3.510;2023-03-03T10:03:21;12.97;;;10.77;;
15665;SDS011;20725;51.196;3.510;2023-03-03T10:06:10;15.90;;;10.90;;
15665;SDS011;20725;51.196;3.510;2023-03-03T10:08:49;14.63;;;11.73;;
15665;SDS011;20725;51.196;3.510;2023-03-03T10:11:31;14.07;;;10.67;;
15665;SDS011;20725;51.196;3.510;2023-03-03T10:14:09;12.57;;;11.07;;
15665;SDS011;20725;51.196;3.510;2023-03-03T10:16:52;15.37;;;10.97;;
15665;SDS011;20725;51.196;3.510;2023-03-03T10:19:37;14.53;;;11.93;;
15665;SDS011;20725;51.196;3.510;2023-03-03T10:24:55;13.97;;;10.67;;
15665;SDS011;20725;51.196;3.510;2023-03-03T10:27:35;12.07;;;10.50;;
15665;SDS011;20725;51.196;3.510;2023-03-03T10:30:12;11.47;;;9.60;;
15665;SDS011;20725;51.196;3.510;2023-03-03T10:32:48;14.63;;;10.67;;
15665;SDS011;20725;51.196;3.510;2023-03-03T10:35:22;12.50;;;9.47;;
15665;SDS011;20725;51.196;3.510;2023-03-03T10:38:15;13.07;;;10.00;;
15665;SDS011;20725;51.196;3.510;2023-03-03T10:40:52;14.53;;;10.97;;
15665;SDS011;20725;51.196;3.510;2023-03-03T10:43:27;11.80;;;10.00;;
15665;SDS011;20725;51.196;3.510;2023-03-03T10:46:17;12.93;;;9.50;;
15665;SDS011;20725;51.196;3.510;2023-03-03T10:52:07;11.67;;;9.63;;
15665;SDS011;20725;51.196;3.510;2023-03-03T10:54:52;12.47;;;9.50;;
15665;SDS011;20725;51.196;3.510;2023-03-03T10:57:41;9.53;;;8.63;;
15665;SDS011;20725;51.196;3.510;2023-03-03T11:00:20;11.27;;;9.93;;
15665;SDS011;20725;51.196;3.510;2023-03-03T11:02:54;11.77;;;8.90;;
15665;SDS011;20725;51.196;3.510;2023-03-03T11:05:45;8.47;;;7.53;;
15665;SDS011;20725;51.196;3.510;2023-03-03T11:08:18;9.20;;;8.30;;
15665;SDS011;20725;51.196;3.510;2023-03-03T11:10:50;10.63;;;7.90;;
15665;SDS011;20725;51.196;3.510;2023-03-03T11:13:25;8.93;;;8.00;;
15665;SDS011;20725;51.196;3.510;2023-03-03T11:16:08;8.63;;;7.20;;
15665;SDS011;20725;51.196;3.510;2023-03-03T11:18:47;9.40;;;7.73;;
15665;SDS011;20725;51.196;3.510;2023-03-03T11:21:28;9.53;;;7.70;;
15665;SDS011;20725;51.196;3.510;2023-03-03T11:24:10;9.33;;;8.33;;
15665;SDS011;20725;51.196;3.510;2023-03-03T11:26:53;8.47;;;7.67;;
15665;SDS011;20725;51.196;3.510;2023-03-03T11:29:42;8.30;;;7.27;;
15665;SDS011;20725;51.196;3.510;2023-03-03T11:32:19;8.67;;;7.70;;
15665;SDS011;20725;51.196;3.510;2023-03-03T11:35:00;8.60;;;7.70;;
15665;SDS011;20725;51.196;3.510;2023-03-03T11:37:44;6.80;;;6.20;;
15665;SDS011;20725;51.196;3.510;2023-03-03T11:40:19;6.70;;;6.10;;
15665;SDS011;20725;51.196;3.510;2023-03-03T11:42:52;7.40;;;6.80;;
15665;SDS011;20725;51.196;3.510;2023-03-03T11:45:27;7.20;;;6.50;;
15665;SDS011;20725;51.196;3.510;2023-03-03T11:48:05;7.33;;;6.40;;
15665;SDS011;20725;51.196;3.510;2023-03-03T11:50:37;7.30;;;6.70;;
15665;SDS011;20725;51.196;3.510;2023-03-03T11:53:16;6.93;;;5.63;;
15665;SDS011;20725;51.196;3.510;2023-03-03T11:55:51;6.00;;;5.50;;
15665;SDS011;20725;51.196;3.510;2023-03-03T11:58:22;5.97;;;5.47;;
15665;SDS011;20725;51.196;3.510;2023-03-03T12:00:53;6.13;;;5.53;;
15665;SDS011;20725;51.196;3.510;2023-03-03T12:03:26;5.63;;;4.87;;
15665;SDS011;20725;51.196;3.510;2023-03-03T12:06:01;6.00;;;5.40;;
15665;SDS011;20725;51.196;3.510;2023-03-03T12:08:50;6.17;;;5.57;;
15665;SDS011;20725;51.196;3.510;2023-03-03T12:11:35;5.68;;;5.25;;
15665;SDS011;20725;51.196;3.510;2023-03-03T12:14:13;4.85;;;4.55;;
15665;SDS011;20725;51.196;3.510;2023-03-03T12:16:53;5.40;;;5.00;;
15665;SDS011;20725;51.196;3.510;2023-03-03T12:19:33;4.97;;;4.57;;
15665;SDS011;20725;51.196;3.510;2023-03-03T12:27:57;5.15;;;4.68;;
15665;SDS011;20725;51.196;3.510;2023-03-03T12:33:33;5.95;;;5.03;;
15665;SDS011;20725;51.196;3.510;2023-03-03T12:36:14;4.85;;;4.45;;
15665;SDS011;20725;51.196;3.510;2023-03-03T12:38:48;4.80;;;4.45;;
15665;SDS011;20725;51.196;3.510;2023-03-03T12:41:24;5.13;;;4.63;;
15665;SDS011;20725;51.196;3.510;2023-03-03T12:43:57;4.82;;;4.32;;
15665;SDS011;20725;51.196;3.510;2023-03-03T12:46:32;4.95;;;4.55;;
15665;SDS011;20725;51.196;3.510;2023-03-03T12:49:07;5.28;;;4.78;;
15665;SDS011;20725;51.196;3.510;2023-03-03T12:51:36;5.07;;;4.57;;
15665;SDS011;20725;51.196;3.510;2023-03-03T12:54:16;5.15;;;4.28;;
15665;SDS011;20725;51.196;3.510;2023-03-03T12:57:09;4.80;;;4.15;;
15665;SDS011;20725;51.196;3.510;2023-03-03T12:59:47;4.68;;;4.28;;
15665;SDS011;20725;51.196;3.510;2023-03-03T13:02:33;4.43;;;4.03;;
15665;SDS011;20725;51.196;3.510;2023-03-03T13:05:09;5.28;;;4.75;;
15665;SDS011;20725;51.196;3.510;2023-03-03T13:07:52;4.60;;;4.20;;
15665;SDS011;20725;51.196;3.510;2023-03-03T13:10:33;5.22;;;4.75;;
15665;SDS011;20725;51.196;3.510;2023-03-03T13:13:05;5.28;;;4.85;;
15665;SDS011;20725;51.196;3.510;2023-03-03T13:15:43;5.20;;;4.70;;
15665;SDS011;20725;51.196;3.510;2023-03-03T13:18:28;4.30;;;4.00;;
15665;SDS011;20725;51.196;3.510;2023-03-03T13:21:02;5.00;;;4.60;;
15665;SDS011;20725;51.196;3.510;2023-03-03T13:23:35;5.10;;;4.60;;
15665;SDS011;20725;51.196;3.510;2023-03-03T13:26:09;4.97;;;4.47;;
15665;SDS011;20725;51.196;3.510;2023-03-03T13:28:45;4.80;;;4.07;;
15665;SDS011;20725;51.196;3.510;2023-03-03T13:31:23;5.00;;;4.50;;
15665;SDS011;20725;51.196;3.510;2023-03-03T13:33:57;5.25;;;4.75;;
15665;SDS011;20725;51.196;3.510;2023-03-03T13:36:27;4.85;;;4.38;;
15665;SDS011;20725;51.196;3.510;2023-03-03T13:39:00;4.50;;;4.10;;
15665;SDS011;20725;51.196;3.510;2023-03-03T13:41:30;5.27;;;4.77;;
15665;SDS011;20725;51.196;3.510;2023-03-03T13:44:08;5.37;;;4.60;;
15665;SDS011;20725;51.196;3.510;2023-03-03T13:46:42;4.70;;;4.30;;
15665;SDS011;20725;51.196;3.510;2023-03-03T13:49:21;3.93;;;3.63;;
15665;SDS011;20725;51.196;3.510;2023-03-03T13:51:58;5.10;;;4.03;;
15665;SDS011;20725;51.196;3.510;2023-03-03T13:57:25;4.47;;;4.07;;
15665;SDS011;20725;51.196;3.510;2023-03-03T14:00:20;4.83;;;4.00;;
15665;SDS011;20725;51.196;3.510;2023-03-03T14:03:02;4.00;;;3.70;;
15665;SDS011;20725;51.196;3.510;2023-03-03T14:05:43;4.50;;;4.10;;
15665;SDS011;20725;51.196;3.510;2023-03-03T14:08:16;4.80;;;4.30;;
15665;SDS011;20725;51.196;3.510;2023-03-03T14:10:55;4.07;;;3.77;;
15665;SDS011;20725;51.196;3.510;2023-03-03T14:13:33;4.60;;;4.20;;
15665;SDS011;20725;51.196;3.510;2023-03-03T14:16:10;4.63;;;4.23;;
15665;SDS011;20725;51.196;3.510;2023-03-03T14:18:44;4.70;;;4.30;;
15665;SDS011;20725;51.196;3.510;2023-03-03T14:21:19;5.03;;;4.30;;
15665;SDS011;20725;51.196;3.510;2023-03-03T14:23:52;4.63;;;4.10;;
15665;SDS011;20725;51.196;3.510;2023-03-03T14:26:25;4.40;;;4.00;;
15665;SDS011;20725;51.196;3.510;2023-03-03T14:29:09;4.53;;;4.10;;
15665;SDS011;20725;51.196;3.510;2023-03-03T14:31:45;5.70;;;4.37;;
15665;SDS011;20725;51.196;3.510;2023-03-03T14:34:14;4.57;;;4.27;;
15665;SDS011;20725;51.196;3.510;2023-03-03T14:36:59;4.97;;;4.57;;
15665;SDS011;20725;51.196;3.510;2023-03-03T14:40:14;5.53;;;5.03;;
15665;SDS011;20725;51.196;3.510;2023-03-03T14:42:47;5.33;;;4.67;;
15665;SDS011;20725;51.196;3.510;2023-03-03T14:45:20;5.43;;;4.93;;
15665;SDS011;20725;51.196;3.510;2023-03-03T14:47:57;5.77;;;5.27;;
15665;SDS011;20725;51.196;3.510;2023-03-03T14:50:28;5.97;;;5.47;;
15665;SDS011;20725;51.196;3.510;2023-03-03T14:55:45;5.83;;;5.20;;
15665;SDS011;20725;51.196;3.510;2023-03-03T14:58:28;5.40;;;4.90;;
15665;SDS011;20725;51.196;3.510;2023-03-03T15:01:07;5.30;;;4.90;;
15665;SDS011;20725;51.196;3.510;2023-03-03T15:03:43;5.40;;;5.00;;
15665;SDS011;20725;51.196;3.510;2023-03-03T15:06:12;4.60;;;4.30;;
15665;SDS011;20725;51.196;3.510;2023-03-03T15:09:23;6.47;;;5.83;;
15665;SDS011;20725;51.196;3.510;2023-03-03T15:11:58;6.87;;;5.50;;
15665;SDS011;20725;51.196;3.510;2023-03-03T15:14:28;6.63;;;6.03;;
15665;SDS011;20725;51.196;3.510;2023-03-03T15:16:57;5.90;;;5.50;;
15665;SDS011;20725;51.196;3.510;2023-03-03T15:20:05;6.33;;;5.87;;
15665;SDS011;20725;51.196;3.510;2023-03-03T15:22:47;6.00;;;5.40;;
15665;SDS011;20725;51.196;3.510;2023-03-03T15:25:21;5.93;;;5.40;;
15665;SDS011;20725;51.196;3.510;2023-03-03T15:27:52;6.80;;;5.30;;
15665;SDS011;20725;51.196;3.510;2023-03-03T15:30:35;4.43;;;4.03;;
15665;SDS011;20725;51.196;3.510;2023-03-03T15:33:12;4.77;;;3.60;;
15665;SDS011;20725;51.196;3.510;2023-03-03T15:35:48;5.80;;;3.50;;
15665;SDS011;20725;51.196;3.510;2023-03-03T15:38:21;5.57;;;3.50;;
15665;SDS011;20725;51.196;3.510;2023-03-03T15:40:59;3.27;;;2.60;;
15665;SDS011;20725;51.196;3.510;2023-03-03T15:43:36;4.10;;;2.80;;
15665;SDS011;20725;51.196;3.510;2023-03-03T15:46:09;2.80;;;2.60;;
15665;SDS011;20725;51.196;3.510;2023-03-03T15:48:45;5.23;;;2.80;;
15665;SDS011;20725;51.196;3.510;2023-03-03T15:51:24;2.77;;;2.47;;
15665;SDS011;20725;51.196;3.510;2023-03-03T15:56:57;3.87;;;2.40;;
15665;SDS011;20725;51.196;3.510;2023-03-03T15:59:45;3.70;;;2.10;;
15665;SDS011;20725;51.196;3.510;2023-03-03T16:02:25;5.43;;;2.47;;
15665;SDS011;20725;51.196;3.510;2023-03-03T16:05:00;5.53;;;2.27;;
15665;SDS011;20725;51.196;3.510;2023-03-03T16:07:41;2.43;;;2.23;;
15665;SDS011;20725;51.196;3.510;2023-03-03T16:10:21;3.93;;;2.10;;
15665;SDS011;20725;51.196;3.510;2023-03-03T16:12:56;4.43;;;2.63;;
15665;SDS011;20725;51.196;3.510;2023-03-03T16:15:36;3.93;;;2.80;;
15665;SDS011;20725;51.196;3.510;2023-03-03T16:18:13;3.40;;;2.67;;
15665;SDS011;20725;51.196;3.510;2023-03-03T16:20:48;3.90;;;2.50;;
15665;SDS011;20725;51.196;3.510;2023-03-03T16:23:30;5.23;;;2.57;;